createdAt,value
2023-05-03T00:01:39.790Z,140.07
2023-05-03T00:04:06.321Z,146.50
2023-05-03T00:06:32.919Z,140.57
2023-05-03T00:08:59.426Z,144.17
2023-05-03T00:11:26.727Z,137.83
2023-05-03T00:13:53.194Z,140.20
2023-05-03T00:16:20.682Z,139.40
2023-05-03T00:18:49.140Z,142.43
2023-05-03T00:21:16.148Z,139.57
2023-05-03T00:23:42.726Z,138.90
2023-05-03T00:26:09.185Z,141.67
2023-05-03T00:28:35.694Z,139.60
2023-05-03T00:31:09.838Z,144.23
2023-05-03T00:33:37.360Z,146.43
2023-05-03T00:36:11.189Z,146.30
2023-05-03T00:38:38.694Z,143.63
2023-05-03T00:41:05.908Z,134.83
2023-05-03T00:43:32.915Z,143.37
2023-05-03T00:46:12.504Z,137.80
2023-05-03T00:48:42.242Z,137.53
2023-05-03T00:51:08.984Z,143.10
2023-05-03T00:53:35.979Z,135.77
2023-05-03T00:56:03.359Z,144.27
2023-05-03T00:58:30.911Z,142.50
2023-05-03T01:00:57.411Z,141.13
2023-05-03T01:03:24.068Z,140.00
2023-05-03T01:06:15.471Z,135.70
2023-05-03T01:08:47.981Z,140.97
2023-05-03T01:11:20.849Z,143.60
2023-05-03T01:13:55.425Z,141.23
2023-05-03T01:16:32.047Z,140.93
2023-05-03T01:19:02.816Z,138.37
2023-05-03T01:21:30.895Z,137.63
2023-05-03T01:24:11.817Z,146.67
2023-05-03T01:26:38.304Z,144.83
2023-05-03T01:29:05.324Z,139.10
2023-05-03T01:31:53.757Z,137.07
2023-05-03T01:34:45.623Z,142.40
2023-05-03T01:37:13.699Z,144.23
2023-05-03T01:39:49.176Z,139.47
2023-05-03T01:42:15.950Z,141.87
2023-05-03T01:44:42.785Z,145.50
2023-05-03T01:47:09.318Z,145.67
2023-05-03T01:49:35.824Z,140.07
2023-05-03T01:52:02.265Z,145.10
2023-05-03T01:54:28.755Z,144.00
2023-05-03T01:56:55.380Z,143.50
2023-05-03T01:59:21.836Z,145.97
2023-05-03T02:01:48.336Z,143.27
2023-05-03T02:04:14.819Z,139.63
2023-05-03T02:06:41.410Z,140.70
2023-05-03T02:09:08.594Z,142.83
2023-05-03T02:11:35.069Z,141.80
2023-05-03T02:14:01.567Z,142.13
2023-05-03T02:16:29.191Z,141.33
2023-05-03T02:18:59.352Z,138.00
2023-05-03T02:21:26.701Z,140.70
2023-05-03T02:23:54.255Z,138.63
2023-05-03T02:26:20.999Z,139.90
2023-05-03T02:28:47.454Z,141.73
2023-05-03T02:31:13.919Z,142.77
2023-05-03T02:33:40.681Z,139.10
2023-05-03T02:36:07.331Z,140.53
2023-05-03T02:38:33.837Z,134.67
2023-05-03T02:41:00.334Z,146.17
2023-05-03T02:43:26.822Z,143.53
2023-05-03T02:45:53.276Z,139.80
2023-05-03T02:48:19.725Z,135.87
2023-05-03T02:50:46.229Z,137.43
2023-05-03T02:53:12.749Z,144.70
2023-05-03T02:55:39.903Z,140.63
2023-05-03T02:58:06.364Z,141.80
2023-05-03T03:00:32.822Z,139.33
2023-05-03T03:02:59.521Z,144.30
2023-05-03T03:05:26.141Z,139.97
2023-05-03T03:07:52.615Z,138.90
2023-05-03T03:10:19.295Z,131.57
2023-05-03T03:12:46.084Z,137.63
2023-05-03T03:15:13.370Z,142.67
2023-05-03T03:17:39.981Z,140.83
2023-05-03T03:20:07.902Z,140.43
2023-05-03T03:22:34.388Z,140.07
2023-05-03T03:25:00.840Z,144.57
2023-05-03T03:27:27.281Z,139.80
2023-05-03T03:29:53.752Z,141.43
2023-05-03T03:32:20.319Z,144.60
2023-05-03T03:34:46.798Z,148.03
2023-05-03T03:37:13.280Z,144.40
2023-05-03T03:39:40.344Z,145.13
2023-05-03T03:42:07.483Z,146.27
2023-05-03T03:44:33.943Z,143.63
2023-05-03T03:47:00.615Z,145.10
2023-05-03T03:49:27.196Z,148.30
2023-05-03T03:51:53.649Z,147.00
2023-05-03T03:54:20.135Z,146.50
2023-05-03T03:56:46.583Z,151.23
2023-05-03T03:59:13.594Z,150.40
2023-05-03T04:01:40.246Z,144.83
2023-05-03T04:04:06.872Z,147.13
2023-05-03T04:06:33.516Z,143.00
2023-05-03T07:28:52.348Z,140.33
2023-05-03T07:39:23.344Z,139.20
2023-05-03T08:54:52.429Z,108.90
2023-05-03T09:03:40.124Z,116.63
2023-05-03T09:25:32.273Z,116.33
2023-05-03T09:36:29.518Z,91.97
2023-05-03T09:58:25.557Z,95.10
2023-05-03T10:00:52.829Z,99.93
2023-05-03T10:03:37.546Z,98.37
2023-05-03T10:06:07.647Z,96.97
2023-05-03T10:08:39.290Z,93.53
2023-05-03T10:11:08.613Z,90.37
2023-05-03T10:13:35.800Z,83.30
2023-05-03T10:16:06.661Z,79.97
2023-05-03T10:18:34.388Z,75.50
2023-05-03T10:21:16.638Z,71.67
2023-05-03T10:24:13.077Z,69.67
2023-05-03T10:26:45.313Z,69.40
2023-05-03T10:29:37.631Z,78.37
2023-05-03T10:32:05.408Z,78.40
2023-05-03T10:34:35.777Z,79.70
2023-05-03T10:37:05.579Z,84.50
2023-05-03T10:39:32.245Z,81.70
2023-05-03T10:41:59.859Z,85.00
2023-05-03T10:44:34.739Z,91.93
2023-05-03T10:47:14.564Z,89.03
2023-05-03T10:49:41.039Z,88.40
2023-05-03T10:52:35.856Z,90.93
2023-05-03T10:55:03.133Z,84.20
2023-05-03T10:57:32.135Z,78.83
2023-05-03T10:59:59.072Z,79.53
2023-05-03T11:02:34.284Z,81.63
2023-05-03T11:05:05.329Z,81.10
2023-05-03T11:07:32.188Z,80.93
2023-05-03T11:09:58.687Z,71.67
2023-05-03T11:12:25.154Z,79.20
2023-05-03T11:14:51.703Z,75.13
2023-05-03T11:17:18.195Z,73.40
2023-05-03T11:19:44.790Z,76.67
2023-05-03T11:22:12.523Z,68.50
2023-05-03T11:24:39.036Z,70.43
2023-05-03T11:27:08.548Z,64.20
2023-05-03T11:29:35.438Z,67.63
2023-05-03T11:32:01.935Z,70.33
2023-05-03T11:34:28.811Z,70.73
2023-05-03T11:36:55.278Z,72.13
2023-05-03T11:39:22.400Z,73.70
2023-05-03T11:42:05.039Z,73.97
2023-05-03T11:44:31.689Z,72.70
2023-05-03T11:46:58.633Z,74.37
2023-05-03T11:49:25.497Z,75.07
2023-05-03T11:51:54.608Z,77.33
2023-05-03T11:54:26.936Z,77.17
2023-05-03T11:56:59.075Z,76.60
2023-05-03T11:59:39.552Z,72.23
2023-05-03T12:02:07.804Z,75.63
2023-05-03T12:04:35.203Z,74.97
2023-05-03T12:07:03.361Z,76.80
2023-05-03T12:09:31.531Z,75.60
2023-05-03T12:11:59.253Z,76.30
2023-05-03T12:14:29.392Z,70.87
2023-05-03T12:16:56.868Z,64.80
2023-05-03T12:19:34.373Z,65.73
2023-05-03T12:22:17.785Z,68.80
2023-05-03T12:24:49.828Z,72.70
2023-05-03T12:27:19.003Z,73.57
2023-05-03T12:29:47.401Z,71.90
2023-05-03T12:32:14.381Z,75.27
2023-05-03T12:34:42.465Z,72.57
2023-05-03T12:37:11.748Z,75.30
2023-05-03T12:39:40.380Z,79.70
2023-05-03T12:42:09.218Z,74.23
2023-05-03T12:44:41.380Z,67.97
2023-05-03T12:47:10.046Z,74.77
2023-05-03T12:49:39.106Z,75.57
2023-05-03T12:52:35.450Z,72.30
2023-05-03T12:55:03.099Z,73.83
2023-05-03T12:57:31.182Z,71.33
2023-05-03T13:00:02.814Z,77.07
2023-05-03T13:05:01.433Z,77.43
2023-05-03T13:07:31.186Z,76.63
2023-05-03T13:12:30.772Z,74.87
2023-05-03T13:14:58.372Z,76.77
2023-05-03T13:17:25.293Z,72.80
2023-05-03T13:19:53.216Z,81.03
2023-05-03T13:22:19.700Z,84.40
2023-05-03T13:24:47.184Z,87.10
2023-05-03T13:27:14.607Z,83.10
2023-05-03T13:29:41.557Z,80.43
2023-05-03T13:32:08.701Z,87.60
2023-05-03T13:34:36.421Z,84.23
2023-05-03T13:37:04.618Z,89.30
2023-05-03T13:39:32.095Z,84.67
2023-05-03T13:41:58.661Z,84.40
2023-05-03T13:44:25.477Z,83.17
2023-05-03T13:46:52.541Z,84.07
2023-05-03T13:49:19.070Z,85.67
2023-05-03T13:51:45.742Z,89.20
2023-05-03T13:54:12.346Z,83.53
2023-05-03T13:56:38.834Z,81.73
2023-05-03T13:59:07.348Z,87.30
2023-05-03T14:01:33.907Z,87.40
2023-05-03T14:04:00.448Z,82.97
2023-05-03T14:06:27.670Z,84.97
2023-05-03T14:08:56.179Z,89.00
2023-05-03T14:11:22.671Z,82.93
2023-05-03T14:13:56.915Z,81.13
2023-05-03T14:16:36.337Z,74.50
2023-05-03T14:19:06.341Z,78.57
2023-05-03T14:21:32.888Z,82.37
2023-05-03T14:23:59.372Z,82.07
2023-05-03T14:26:26.743Z,78.40
2023-05-03T14:28:53.437Z,76.33
2023-05-03T14:31:20.140Z,76.27
2023-05-03T14:33:53.658Z,70.43
2023-05-03T14:36:20.124Z,67.33
2023-05-03T14:38:46.881Z,63.03
2023-05-03T14:41:13.370Z,70.77
2023-05-03T14:43:39.785Z,70.20
2023-05-03T14:46:06.462Z,68.87
2023-05-03T14:48:33.006Z,75.97
2023-05-03T14:50:59.624Z,75.53
2023-05-03T14:53:26.204Z,74.80
2023-05-03T14:55:54.968Z,75.10
2023-05-03T14:58:21.791Z,80.80
2023-05-03T15:00:48.395Z,84.50
2023-05-03T15:03:15.522Z,87.10
2023-05-03T15:05:50.427Z,89.17
2023-05-03T15:08:22.863Z,97.67
2023-05-03T15:10:49.331Z,95.47
2023-05-03T15:13:16.889Z,95.80
2023-05-03T15:15:43.869Z,98.97
2023-05-03T15:18:11.065Z,97.23
2023-05-03T15:20:38.058Z,101.67
2023-05-03T15:23:05.222Z,99.00
2023-05-03T15:25:32.157Z,101.63
2023-05-03T15:28:00.607Z,98.93
2023-05-03T15:30:29.381Z,96.73
2023-05-03T15:32:56.013Z,100.77
2023-05-03T15:35:22.553Z,98.60
2023-05-03T15:37:49.080Z,104.60
2023-05-03T15:40:16.509Z,105.77
2023-05-03T15:42:43.041Z,110.97
2023-05-03T15:45:10.818Z,107.20
2023-05-03T15:47:37.408Z,105.37
2023-05-03T15:50:06.445Z,107.97
2023-05-03T15:52:33.523Z,105.27
2023-05-03T15:54:59.983Z,113.27
2023-05-03T15:57:26.822Z,109.83
2023-05-03T15:59:54.135Z,112.60
2023-05-03T16:02:21.431Z,106.53
2023-05-03T16:04:50.311Z,111.93
2023-05-03T16:07:17.444Z,114.67
2023-05-03T16:09:43.984Z,114.20
2023-05-03T16:12:11.034Z,115.93
2023-05-03T16:14:37.589Z,117.23
2023-05-03T16:17:04.086Z,117.30
2023-05-03T16:19:30.990Z,114.00
2023-05-03T16:21:57.570Z,117.40
2023-05-03T16:24:24.278Z,115.93
2023-05-03T16:26:52.864Z,117.57
2023-05-03T16:29:19.807Z,118.57
2023-05-03T16:31:46.985Z,117.57
2023-05-03T16:34:14.051Z,124.27
2023-05-03T16:36:43.074Z,121.87
2023-05-03T16:39:13.457Z,119.43
2023-05-03T16:41:40.718Z,124.90
2023-05-03T16:44:08.517Z,126.73
2023-05-03T16:46:39.681Z,117.97
2023-05-03T16:49:06.402Z,125.73
2023-05-03T16:51:33.739Z,124.90
2023-05-03T16:54:02.283Z,126.87
2023-05-03T16:56:30.820Z,129.03
2023-05-03T16:58:57.287Z,126.17
2023-05-03T17:01:23.794Z,123.20
2023-05-03T17:03:50.397Z,124.40
2023-05-03T17:06:18.317Z,128.17
2023-05-03T17:08:45.219Z,125.77
2023-05-03T17:11:13.446Z,122.73
2023-05-03T17:13:40.141Z,122.20
2023-05-03T17:16:09.088Z,126.43
2023-05-03T17:18:36.930Z,127.90
2023-05-03T17:21:04.779Z,121.60
2023-05-03T17:23:36.034Z,121.83
2023-05-03T17:26:03.689Z,126.87
2023-05-03T17:28:30.705Z,123.90
2023-05-03T17:30:57.210Z,125.57
2023-05-03T17:33:25.268Z,123.17
2023-05-03T17:36:00.577Z,120.57
2023-05-03T17:38:27.105Z,128.00
2023-05-03T17:40:53.796Z,128.63
2023-05-03T17:43:20.372Z,126.63
2023-05-03T17:45:47.964Z,122.57
2023-05-03T17:48:14.802Z,132.57
2023-05-03T17:50:46.180Z,127.13
2023-05-03T17:53:12.839Z,127.70
2023-05-03T17:55:39.357Z,126.47
2023-05-03T17:58:06.490Z,123.30
2023-05-03T18:00:33.709Z,119.90
2023-05-03T18:03:00.936Z,124.60
2023-05-03T18:05:27.601Z,124.70
2023-05-03T18:07:54.241Z,125.17
2023-05-03T18:10:21.123Z,128.27
2023-05-03T18:12:47.858Z,121.40
2023-05-03T18:15:15.790Z,128.10
2023-05-03T18:17:42.799Z,125.90
2023-05-03T18:20:09.800Z,122.60
2023-05-03T18:22:37.533Z,125.50
2023-05-03T18:25:07.476Z,124.80
2023-05-03T18:27:36.741Z,129.70
2023-05-03T18:30:07.036Z,123.53
2023-05-03T18:32:34.448Z,125.37
2023-05-03T18:35:01.249Z,125.33
2023-05-03T18:37:27.868Z,125.43
2023-05-03T18:39:54.405Z,126.43
2023-05-03T18:42:21.378Z,131.50
2023-05-03T18:44:48.490Z,125.77
2023-05-03T18:47:18.850Z,130.73
2023-05-03T18:49:46.952Z,133.63
2023-05-03T18:52:13.392Z,135.13
2023-05-03T18:54:39.889Z,133.83
2023-05-03T18:57:06.336Z,139.80
2023-05-03T18:59:32.816Z,140.07
2023-05-03T19:01:59.316Z,133.27
2023-05-03T19:04:25.923Z,140.17
2023-05-03T19:06:52.441Z,139.90
2023-05-03T19:09:18.939Z,139.37
2023-05-03T19:11:45.515Z,139.67
2023-05-03T19:14:12.027Z,140.90
2023-05-03T19:16:38.746Z,137.17
2023-05-03T19:19:05.286Z,141.00
2023-05-03T19:21:32.297Z,142.47
2023-05-03T19:23:58.760Z,147.23
2023-05-03T19:26:25.246Z,144.03
2023-05-03T19:28:51.711Z,144.50
2023-05-03T19:31:18.272Z,140.97
2023-05-03T19:33:44.791Z,146.33
2023-05-03T19:36:15.029Z,149.70
2023-05-03T19:38:41.577Z,143.33
2023-05-03T19:41:12.058Z,143.27
2023-05-03T19:43:39.549Z,149.13
2023-05-03T19:46:06.662Z,150.07
2023-05-03T19:48:33.504Z,150.00
2023-05-03T19:51:00.711Z,147.20
2023-05-03T19:53:27.979Z,144.43
2023-05-03T19:55:58.673Z,147.10
2023-05-03T19:58:26.083Z,149.10
2023-05-03T20:00:53.541Z,156.87
2023-05-03T20:03:22.740Z,152.53
2023-05-03T20:05:49.448Z,153.27
2023-05-03T20:08:15.969Z,153.17
2023-05-03T20:10:44.694Z,156.00
2023-05-03T20:13:12.877Z,151.67
2023-05-03T20:15:39.461Z,151.10
2023-05-03T20:18:06.275Z,153.27
2023-05-03T20:20:32.977Z,157.00
2023-05-03T20:22:59.464Z,147.40
2023-05-03T20:25:26.086Z,155.17
2023-05-03T20:27:52.808Z,152.63
2023-05-03T20:30:19.495Z,154.63
2023-05-03T20:32:46.072Z,154.67
2023-05-03T20:35:12.675Z,157.60
2023-05-03T20:37:39.451Z,157.97
2023-05-03T20:40:07.310Z,160.43
2023-05-03T20:42:34.108Z,156.30
2023-05-03T20:45:00.657Z,151.23
2023-05-03T20:47:27.816Z,156.60
2023-05-03T20:49:54.282Z,155.53
2023-05-03T20:52:21.312Z,155.93
2023-05-03T20:54:48.109Z,164.83
2023-05-03T20:57:16.727Z,151.73
2023-05-03T20:59:46.162Z,158.37
2023-05-03T21:02:12.692Z,158.57
2023-05-03T21:04:39.334Z,155.20
2023-05-03T21:07:05.983Z,155.70
2023-05-03T21:09:33.397Z,157.17
2023-05-03T21:12:00.060Z,161.03
2023-05-03T21:14:27.824Z,155.37
2023-05-03T21:16:54.345Z,160.33
2023-05-03T21:19:21.081Z,151.20
2023-05-03T21:21:48.092Z,159.47
2023-05-03T21:24:14.562Z,151.77
2023-05-03T21:26:41.020Z,154.73
2023-05-03T21:29:07.494Z,157.93
2023-05-03T21:31:34.036Z,161.40
2023-05-03T21:34:00.488Z,158.50
2023-05-03T21:36:27.022Z,153.30
2023-05-03T21:38:53.557Z,154.17
2023-05-03T21:41:20.535Z,159.10
2023-05-03T21:43:47.037Z,147.07
2023-05-03T21:46:14.066Z,157.47
2023-05-03T21:48:41.056Z,155.90
2023-05-03T21:51:08.662Z,152.87
2023-05-03T21:53:35.645Z,151.93
2023-05-03T21:56:02.313Z,157.30
2023-05-03T21:58:29.696Z,156.93
2023-05-03T22:00:56.282Z,158.97
2023-05-03T22:03:22.996Z,165.17
2023-05-03T22:05:51.447Z,173.23
2023-05-03T22:08:18.605Z,165.57
2023-05-03T22:10:48.124Z,168.17
2023-05-03T22:13:14.681Z,162.13
2023-05-03T22:15:41.270Z,164.37
2023-05-03T22:18:07.833Z,161.60
2023-05-03T22:20:34.372Z,161.07
2023-05-03T22:23:00.816Z,154.03
2023-05-03T22:25:30.077Z,164.07
2023-05-03T22:27:58.004Z,152.53
2023-05-03T22:30:24.558Z,156.67
2023-05-03T22:32:51.061Z,147.17
2023-05-03T22:35:17.632Z,161.43
2023-05-03T22:37:44.115Z,161.37
2023-05-03T22:40:10.810Z,165.40
2023-05-03T22:42:37.663Z,152.40
2023-05-03T22:45:04.441Z,154.13
2023-05-03T22:47:30.894Z,150.70
2023-05-03T22:49:57.426Z,151.43
2023-05-03T22:52:23.943Z,148.80
2023-05-03T22:54:55.090Z,155.10
2023-05-03T22:57:21.587Z,160.03
2023-05-03T22:59:48.055Z,155.70
2023-05-03T23:02:14.902Z,148.47
2023-05-03T23:04:41.441Z,157.03
2023-05-03T23:07:07.941Z,148.13
2023-05-03T23:09:34.467Z,149.17
2023-05-03T23:12:01.010Z,153.03
2023-05-03T23:14:27.448Z,158.27
2023-05-03T23:16:54.084Z,146.70
2023-05-03T23:19:20.686Z,158.60
2023-05-03T23:21:47.153Z,149.23
2023-05-03T23:24:13.616Z,147.73
2023-05-03T23:26:40.327Z,148.63
2023-05-03T23:29:08.249Z,145.90
2023-05-03T23:31:35.935Z,150.70
2023-05-03T23:34:05.038Z,147.80
2023-05-03T23:36:32.974Z,151.03
2023-05-03T23:38:59.805Z,142.47
2023-05-03T23:41:26.469Z,157.50
2023-05-03T23:43:53.068Z,154.33
2023-05-03T23:46:23.379Z,157.33
2023-05-03T23:48:49.938Z,153.17
2023-05-03T23:51:16.421Z,147.23
2023-05-03T23:53:42.888Z,143.77
2023-05-03T23:56:09.355Z,150.50
2023-05-03T23:58:35.857Z,157.73
